createdAt,value
2022-12-08T00:01:12.247Z,13.8
2022-12-08T00:02:28.538Z,13.3
2022-12-08T00:03:44.829Z,12.9
2022-12-08T00:05:01.143Z,13.4
2022-12-08T00:06:17.430Z,14.6
2022-12-08T00:08:50.012Z,13.5
2022-12-08T00:10:06.310Z,13.6
2022-12-08T00:11:21.631Z,13.5
2022-12-08T00:12:37.921Z,14.6
2022-12-08T00:15:10.507Z,13.3
2022-12-08T00:16:26.803Z,15.4
2022-12-08T00:17:43.088Z,15.6
2022-12-08T00:18:59.386Z,14.2
2022-12-08T00:20:15.681Z,14.4
2022-12-08T00:21:31.971Z,14
2022-12-08T00:22:48.274Z,15.5
2022-12-08T00:24:04.579Z,14.2
2022-12-08T00:26:37.150Z,12.9
2022-12-08T00:27:52.469Z,14
2022-12-08T00:29:07.794Z,13.2
2022-12-08T00:30:24.082Z,13.5
2022-12-08T00:31:40.367Z,12.3
2022-12-08T00:32:56.667Z,13.8
2022-12-08T00:34:12.969Z,14.6
2022-12-08T00:35:29.266Z,15.4
2022-12-08T00:36:45.547Z,16.2
2022-12-08T00:38:01.850Z,12.6
2022-12-08T00:39:18.154Z,15.3
2022-12-08T00:40:34.447Z,13.7
2022-12-08T00:41:49.762Z,15.5
2022-12-08T00:44:21.354Z,14.7
2022-12-08T00:45:37.660Z,14.5
2022-12-08T00:46:53.943Z,14.7
2022-12-08T00:48:10.255Z,14.9
2022-12-08T00:49:26.540Z,14.8
2022-12-08T00:50:42.838Z,14.6
2022-12-08T00:51:59.132Z,13.4
2022-12-08T00:53:15.415Z,14.1
2022-12-08T00:54:31.726Z,13.5
2022-12-08T00:55:48.015Z,15.3
2022-12-08T00:57:04.306Z,15.5
2022-12-08T00:58:20.613Z,14.3
2022-12-08T00:59:35.904Z,14.4
2022-12-08T01:00:52.207Z,14.5
2022-12-08T01:02:08.514Z,14.8
2022-12-08T01:04:41.088Z,15.1
2022-12-08T01:05:57.385Z,15.3
2022-12-08T01:07:13.676Z,14.5
2022-12-08T01:08:29.976Z,15.9
2022-12-08T01:09:46.276Z,15
2022-12-08T01:11:02.563Z,16.4
2022-12-08T01:12:18.858Z,14.7
2022-12-08T01:13:35.150Z,15.2
2022-12-08T01:14:51.443Z,14.6
2022-12-08T01:16:06.765Z,15.7
2022-12-08T01:17:23.052Z,14
2022-12-08T01:18:39.348Z,14.4
2022-12-08T01:19:55.644Z,14.8
2022-12-08T01:21:11.944Z,14.5
2022-12-08T01:22:28.234Z,16
2022-12-08T01:23:44.534Z,15.8
2022-12-08T01:25:00.831Z,13.7
2022-12-08T01:26:17.112Z,15.1
2022-12-08T01:27:33.416Z,16.5
2022-12-08T01:28:49.706Z,14.4
2022-12-08T01:30:05.992Z,16.6
2022-12-08T01:32:38.583Z,14.4
2022-12-08T01:33:53.895Z,13.4
2022-12-08T01:35:10.189Z,13.8
2022-12-08T01:36:26.497Z,14.7
2022-12-08T01:37:42.796Z,13.8
2022-12-08T01:38:59.082Z,13.3
2022-12-08T01:40:15.382Z,14.6
2022-12-08T01:41:31.667Z,16.1
2022-12-08T01:42:47.957Z,14
2022-12-08T01:44:04.262Z,14.2
2022-12-08T01:45:20.553Z,15.7
2022-12-08T01:46:36.861Z,13.1
2022-12-08T01:47:52.171Z,13.7
2022-12-08T01:50:24.756Z,13.7
2022-12-08T01:51:41.052Z,14.2
2022-12-08T01:52:57.341Z,14
2022-12-08T01:54:13.636Z,13
2022-12-08T01:55:29.937Z,14.8
2022-12-08T01:56:46.229Z,14.6
2022-12-08T01:58:02.531Z,13.3
2022-12-08T01:59:18.827Z,13.3
2022-12-08T02:00:35.114Z,13.7
2022-12-08T02:01:51.406Z,13.8
2022-12-08T02:03:07.700Z,14.5
2022-12-08T02:05:40.409Z,13.8
2022-12-08T02:06:56.706Z,16.1
2022-12-08T02:08:12.996Z,14.7
2022-12-08T02:09:29.292Z,13.2
2022-12-08T02:10:45.590Z,14.5
2022-12-08T02:13:18.187Z,13.5
2022-12-08T02:14:33.493Z,13.1
2022-12-08T02:15:48.815Z,13.8
2022-12-08T02:17:05.101Z,13.8
2022-12-08T02:18:21.395Z,13
2022-12-08T02:19:37.685Z,15.2
2022-12-08T02:20:53.976Z,11
2022-12-08T02:22:10.276Z,12.8
2022-12-08T02:23:26.586Z,13.5
2022-12-08T02:24:42.881Z,14
2022-12-08T02:25:59.157Z,12.9
2022-12-08T02:27:15.465Z,12.5
2022-12-08T02:28:30.774Z,12
2022-12-08T02:29:47.196Z,11.7
2022-12-08T02:31:03.488Z,12.5
2022-12-08T02:32:19.788Z,10.9
2022-12-08T02:33:36.080Z,12.3
2022-12-08T02:34:52.365Z,12.7
2022-12-08T02:36:08.663Z,12
2022-12-08T02:37:24.959Z,13
2022-12-08T02:38:41.257Z,12.9
2022-12-08T02:39:57.541Z,13.1
2022-12-08T02:41:13.848Z,13.9
2022-12-08T02:42:30.140Z,14.1
2022-12-08T02:43:46.444Z,13.2
2022-12-08T02:45:02.738Z,12.2
2022-12-08T02:46:18.044Z,13.8
2022-12-08T02:47:34.343Z,11.9
2022-12-08T02:48:50.641Z,14.5
2022-12-08T02:50:06.930Z,13.3
2022-12-08T02:51:23.222Z,13.5
2022-12-08T02:52:39.511Z,15
2022-12-08T02:53:55.810Z,14.3
2022-12-08T02:55:12.113Z,12.7
2022-12-08T02:56:28.401Z,12.7
2022-12-08T02:59:00.989Z,12.3
2022-12-08T03:00:17.292Z,13.7
2022-12-08T03:02:49.866Z,11.8
2022-12-08T03:04:05.183Z,14.9
2022-12-08T03:05:21.487Z,13.3
2022-12-08T03:06:37.777Z,13.5
2022-12-08T03:09:10.355Z,14.8
2022-12-08T03:10:25.681Z,13.5
2022-12-08T03:11:40.983Z,13
2022-12-08T03:12:57.281Z,13.9
2022-12-08T03:14:13.588Z,12.6
2022-12-08T03:15:29.867Z,12.2
2022-12-08T03:16:46.158Z,14.5
2022-12-08T03:18:02.472Z,14.4
2022-12-08T03:19:18.761Z,13.6
2022-12-08T03:20:35.049Z,12.8
2022-12-08T03:21:51.354Z,14.2
2022-12-08T03:23:07.644Z,13.3
2022-12-08T03:24:22.952Z,14.6
2022-12-08T03:25:39.372Z,13.4
2022-12-08T03:26:55.674Z,14.2
2022-12-08T03:28:11.967Z,12.9
2022-12-08T03:29:28.251Z,13.5
2022-12-08T03:30:44.550Z,15
2022-12-08T03:32:00.853Z,14.5
2022-12-08T03:33:17.146Z,14.8
2022-12-08T03:34:33.433Z,15.2
2022-12-08T03:35:49.723Z,14.9
2022-12-08T03:37:06.031Z,14.2
2022-12-08T03:38:22.328Z,16.1
2022-12-08T03:39:38.619Z,17
2022-12-08T03:40:54.910Z,14.9
2022-12-08T03:42:10.220Z,15
2022-12-08T03:43:26.510Z,14.3
2022-12-08T03:44:42.812Z,13
2022-12-08T03:45:59.113Z,15
2022-12-08T03:47:15.402Z,14.1
2022-12-08T03:48:31.700Z,14.8
2022-12-08T03:49:47.982Z,16
2022-12-08T03:52:20.579Z,16.2
2022-12-08T03:53:36.867Z,17.7
2022-12-08T03:54:53.167Z,16.2
2022-12-08T03:56:09.468Z,15.2
2022-12-08T03:57:25.752Z,15.4
2022-12-08T03:58:41.079Z,15.6
2022-12-08T03:59:57.369Z,15.3
2022-12-08T04:01:13.668Z,16.7
2022-12-08T04:02:29.947Z,16.4
2022-12-08T04:03:46.250Z,14.1
2022-12-08T04:05:02.555Z,14.9
2022-12-08T04:06:18.841Z,15.4
2022-12-08T04:07:35.144Z,16.7
2022-12-08T04:08:51.426Z,15.6
2022-12-08T04:10:07.721Z,15
2022-12-08T04:11:24.021Z,14.5
2022-12-08T04:12:40.312Z,15.9
2022-12-08T04:13:56.613Z,16.2
2022-12-08T04:15:11.923Z,14.6
2022-12-08T04:16:28.218Z,16.5
2022-12-08T04:17:44.507Z,15.4
2022-12-08T04:19:00.802Z,18
2022-12-08T04:20:17.089Z,16
2022-12-08T04:21:33.400Z,17.5
2022-12-08T04:22:49.686Z,18.5
2022-12-08T04:24:05.989Z,15.8
2022-12-08T04:25:22.282Z,17.7
2022-12-08T04:26:38.576Z,16.2
2022-12-08T04:27:54.862Z,15.7
2022-12-08T04:29:11.168Z,16
2022-12-08T04:30:27.466Z,16.1
2022-12-08T04:31:42.762Z,17.2
2022-12-08T04:32:59.054Z,16.8
2022-12-08T04:34:15.368Z,18.4
2022-12-08T04:35:31.659Z,18.3
2022-12-08T04:36:47.952Z,17.5
2022-12-08T04:38:04.232Z,17.7
2022-12-08T04:39:20.531Z,15.7
2022-12-08T04:40:36.825Z,16.9
2022-12-08T04:41:53.116Z,16
2022-12-08T04:43:09.422Z,16.1
2022-12-08T04:44:25.717Z,17.2
2022-12-08T04:45:42.020Z,16.3
2022-12-08T04:46:58.299Z,17.8
2022-12-08T04:48:13.621Z,16.6
2022-12-08T04:49:29.918Z,16
2022-12-08T04:50:46.199Z,15.3
2022-12-08T04:52:02.509Z,16.2
2022-12-08T04:53:18.804Z,17.4
2022-12-08T04:54:35.085Z,19
2022-12-08T04:55:51.395Z,16.2
2022-12-08T04:57:07.689Z,16.3
2022-12-08T04:58:23.975Z,16.7
2022-12-08T04:59:40.268Z,16.6
2022-12-08T05:00:56.561Z,15.8
2022-12-08T05:02:12.861Z,15.3
2022-12-08T05:03:29.163Z,16
2022-12-08T05:04:45.576Z,16.4
2022-12-08T05:06:01.859Z,13.4
2022-12-08T05:07:18.168Z,16.3
2022-12-08T05:08:34.451Z,15.9
2022-12-08T05:09:50.759Z,15
2022-12-08T05:11:07.033Z,13.7
2022-12-08T05:12:23.333Z,16.3
2022-12-08T05:13:39.633Z,15.3
2022-12-08T05:14:55.917Z,18.3
2022-12-08T05:16:12.226Z,16.1
2022-12-08T05:17:28.522Z,14.5
2022-12-08T05:18:44.820Z,14.5
2022-12-08T05:20:01.112Z,13.2
2022-12-08T05:21:16.000Z,15.1
2022-12-08T05:22:32.717Z,15.1
2022-12-08T05:23:49.013Z,13.5
2022-12-08T05:25:05.306Z,15.8
2022-12-08T05:26:21.599Z,17.9
2022-12-08T05:27:37.897Z,16.6
2022-12-08T05:28:54.185Z,13.9
2022-12-08T05:30:10.474Z,15.6
2022-12-08T05:31:26.775Z,14.9
2022-12-08T05:32:43.064Z,13.8
2022-12-08T05:33:59.356Z,15.6
2022-12-08T05:35:15.656Z,15.4
2022-12-08T05:36:31.947Z,13.7
2022-12-08T05:39:03.551Z,15.6
2022-12-08T05:40:19.850Z,14.5
2022-12-08T05:41:36.140Z,14.6
2022-12-08T05:42:52.000Z,15.6
2022-12-08T05:44:08.733Z,17.8
2022-12-08T05:45:25.027Z,16.5
2022-12-08T05:46:41.339Z,14.5
2022-12-08T05:47:57.628Z,15.1
2022-12-08T05:49:13.919Z,16.5
2022-12-08T05:50:30.223Z,14.7
2022-12-08T05:51:46.509Z,14.1
2022-12-08T05:53:02.809Z,15.2
2022-12-08T05:54:18.113Z,16.4
2022-12-08T05:55:34.404Z,17
2022-12-08T05:56:50.700Z,14.1
2022-12-08T05:58:07.006Z,14.8
2022-12-08T05:59:23.302Z,16.5
2022-12-08T06:00:39.579Z,15.7
2022-12-08T06:01:55.887Z,16
2022-12-08T06:03:11.195Z,14.4
2022-12-08T06:04:27.484Z,16.1
2022-12-08T06:05:43.000Z,15.7
2022-12-08T06:07:00.089Z,15.9
2022-12-08T06:08:16.384Z,17.8
2022-12-08T06:09:32.673Z,15.1
2022-12-08T06:10:48.962Z,16.7
2022-12-08T06:12:05.268Z,15.6
2022-12-08T06:13:21.551Z,15.9
2022-12-08T06:14:37.847Z,15.4
2022-12-08T06:15:54.152Z,14.8
2022-12-08T06:17:10.379Z,15.4
2022-12-08T06:18:26.687Z,15.1
2022-12-08T06:19:42.004Z,14.8
2022-12-08T06:20:58.298Z,15.6
2022-12-08T06:22:14.541Z,14.4
2022-12-08T06:23:30.780Z,16.1
2022-12-08T06:24:47.086Z,16.9
2022-12-08T06:26:03.377Z,17.4
2022-12-08T06:27:19.624Z,18.8
2022-12-08T06:28:35.874Z,18.5
2022-12-08T06:29:52.101Z,17.2
2022-12-08T06:31:08.343Z,21.2
2022-12-08T06:32:24.584Z,23.2
2022-12-08T06:34:57.062Z,19.3
2022-12-08T06:36:12.329Z,17.5
2022-12-08T06:37:28.564Z,18.8
2022-12-08T06:38:44.817Z,18.3
2022-12-08T06:40:01.048Z,17.2
2022-12-08T06:41:17.291Z,18.7
2022-12-08T06:42:33.520Z,16.8
2022-12-08T06:43:49.766Z,16.9
2022-12-08T06:45:06.002Z,16.8
2022-12-08T06:46:22.256Z,15.4
2022-12-08T06:47:38.488Z,18.6
2022-12-08T06:48:54.741Z,17.7
2022-12-08T06:50:10.000Z,16.9
2022-12-08T06:51:27.216Z,16.7
2022-12-08T06:52:42.471Z,18.1
2022-12-08T06:53:58.714Z,18.7
2022-12-08T06:55:14.945Z,16.3
2022-12-08T06:56:31.186Z,18
2022-12-08T06:57:47.428Z,17.9
2022-12-08T06:59:03.684Z,18.3
2022-12-08T07:00:19.912Z,18.7
2022-12-08T07:01:36.158Z,18.6
2022-12-08T07:02:52.392Z,17.8
2022-12-08T07:04:08.634Z,17.2
2022-12-08T07:05:24.885Z,18
2022-12-08T07:06:41.123Z,18.2
2022-12-08T07:07:57.365Z,17.7
2022-12-08T07:10:28.851Z,15.6
2022-12-08T07:11:45.104Z,17
2022-12-08T07:13:01.332Z,18.1
2022-12-08T07:14:17.592Z,16.4
2022-12-08T07:15:33.818Z,16.7
2022-12-08T07:18:06.298Z,17.2
2022-12-08T07:19:22.550Z,15
2022-12-08T07:20:38.785Z,17.3
2022-12-08T07:23:11.270Z,17
2022-12-08T07:24:26.537Z,19.7
2022-12-08T07:25:41.789Z,18.2
2022-12-08T07:26:58.028Z,16.7
2022-12-08T07:28:14.279Z,18.6
2022-12-08T07:29:30.501Z,18.2
2022-12-08T07:30:46.741Z,19.1
2022-12-08T07:32:02.984Z,18.3
2022-12-08T07:33:19.225Z,17.3
2022-12-08T07:34:35.482Z,17.1
2022-12-08T07:35:51.725Z,15.7
2022-12-08T07:37:07.949Z,15.8
2022-12-08T07:38:23.208Z,16
2022-12-08T07:39:39.570Z,16.1
2022-12-08T07:40:55.829Z,16.1
2022-12-08T07:42:12.062Z,15.9
2022-12-08T07:43:28.313Z,16.2
2022-12-08T07:44:44.544Z,15.6
2022-12-08T07:46:00.795Z,16.3
2022-12-08T07:47:17.024Z,14.4
2022-12-08T07:48:33.268Z,14.6
2022-12-08T07:49:49.515Z,13.9
2022-12-08T07:51:05.756Z,15.6
2022-12-08T07:52:21.983Z,14.6
2022-12-08T07:53:38.233Z,13
2022-12-08T07:56:10.717Z,13.7
2022-12-08T07:57:25.960Z,14.7
2022-12-08T07:58:42.204Z,13.8
2022-12-08T07:59:58.445Z,14.1
2022-12-08T08:01:14.694Z,14.1
2022-12-08T08:02:30.936Z,13.6
2022-12-08T08:03:47.166Z,14.3
2022-12-08T08:05:03.421Z,14.8
2022-12-08T08:06:19.647Z,14.5
2022-12-08T08:07:35.882Z,16.8
2022-12-08T08:08:52.127Z,14.7
2022-12-08T08:10:08.370Z,14.6
2022-12-08T08:11:24.625Z,13.9
2022-12-08T08:12:40.848Z,14.5
2022-12-08T08:13:56.107Z,14.6
2022-12-08T08:15:12.346Z,14.1
2022-12-08T08:16:28.603Z,13.2
2022-12-08T08:17:44.832Z,13.1
2022-12-08T08:19:01.077Z,13.1
2022-12-08T08:20:17.326Z,11.2
2022-12-08T08:21:33.567Z,12.6
2022-12-08T08:22:49.807Z,14.2
2022-12-08T08:24:06.040Z,13.4
2022-12-08T08:25:22.269Z,13.1
2022-12-08T08:26:38.510Z,15
2022-12-08T08:27:54.750Z,12.9
2022-12-08T08:29:11.010Z,14.8
2022-12-08T08:30:26.253Z,13.5
2022-12-08T08:31:42.496Z,13.6
2022-12-08T08:32:58.746Z,13.2
2022-12-08T08:34:14.984Z,13.1
2022-12-08T08:35:31.213Z,12.7
2022-12-08T08:36:47.465Z,14
2022-12-08T08:38:03.713Z,14.2
2022-12-08T08:39:19.937Z,13.8
2022-12-08T08:40:36.191Z,14.3
2022-12-08T08:41:52.424Z,13.7
2022-12-08T08:43:08.662Z,13
2022-12-08T08:44:24.899Z,14
2022-12-08T08:45:41.156Z,12.2
2022-12-08T08:46:56.413Z,12.6
2022-12-08T08:48:12.637Z,11.7
2022-12-08T08:49:28.879Z,12.2
2022-12-08T08:50:45.133Z,12.2
2022-12-08T08:52:01.360Z,11.2
2022-12-08T08:53:17.602Z,12.9
2022-12-08T08:54:33.852Z,11.9
2022-12-08T08:55:50.084Z,13.3
2022-12-08T08:57:06.325Z,12.1
2022-12-08T08:58:22.578Z,13.8
2022-12-08T08:59:38.813Z,11.7
2022-12-08T09:00:55.055Z,12.1
2022-12-08T09:02:11.291Z,12.7
2022-12-08T09:03:27.653Z,11.5
2022-12-08T09:04:43.891Z,13.1
2022-12-08T09:06:00.143Z,12.4
2022-12-08T09:07:16.373Z,10.9
2022-12-08T09:08:32.615Z,11.6
2022-12-08T09:09:48.855Z,13
2022-12-08T09:11:05.097Z,11.5
2022-12-08T09:12:21.344Z,10.8
2022-12-08T09:13:37.581Z,11.9
2022-12-08T09:14:53.826Z,11.7
2022-12-08T09:16:10.049Z,11.2
2022-12-08T09:17:26.292Z,12
2022-12-08T09:18:42.543Z,10.4
2022-12-08T09:19:57.803Z,11.5
2022-12-08T09:21:14.033Z,11.5
2022-12-08T09:22:30.277Z,11
2022-12-08T09:23:46.528Z,12.2
2022-12-08T09:25:02.762Z,11.4
2022-12-08T09:26:18.996Z,12.1
2022-12-08T09:27:35.230Z,11.6
2022-12-08T09:28:51.483Z,11.7
2022-12-08T09:30:07.718Z,11.8
2022-12-08T09:31:23.972Z,12.4
2022-12-08T09:32:40.209Z,11.8
2022-12-08T09:33:56.439Z,11.4
2022-12-08T09:35:12.681Z,12
2022-12-08T09:36:27.934Z,11.8
2022-12-08T09:37:44.185Z,11.1
2022-12-08T09:39:00.420Z,11.2
2022-12-08T09:40:16.667Z,11.3
2022-12-08T09:41:32.894Z,13.1
2022-12-08T09:42:49.139Z,11.5
2022-12-08T09:44:05.391Z,12.3
2022-12-08T09:45:21.630Z,12.3
2022-12-08T09:46:37.861Z,12.6
2022-12-08T09:47:54.097Z,12.5
2022-12-08T09:49:10.351Z,14.8
2022-12-08T09:50:26.577Z,12.5
2022-12-08T09:51:42.827Z,13.5
2022-12-08T09:52:58.075Z,12.6
2022-12-08T09:54:14.323Z,13.3
2022-12-08T09:55:30.561Z,13
2022-12-08T09:56:46.796Z,13.2
2022-12-08T09:58:03.042Z,13.3
2022-12-08T09:59:19.290Z,13.6
2022-12-08T10:00:35.523Z,15.5
2022-12-08T10:01:51.778Z,14.8
2022-12-08T10:03:08.018Z,13.2
2022-12-08T10:04:24.254Z,13.4
2022-12-08T10:05:40.490Z,14.2
2022-12-08T10:06:56.721Z,15.3
2022-12-08T10:08:12.970Z,15.5
2022-12-08T10:09:28.234Z,14.1
2022-12-08T10:10:44.469Z,16.1
2022-12-08T10:12:00.720Z,15.5
2022-12-08T10:13:16.946Z,16.9
2022-12-08T10:14:33.195Z,16.2
2022-12-08T10:15:49.435Z,15.8
2022-12-08T10:18:21.924Z,15.9
2022-12-08T10:20:53.406Z,16.1
2022-12-08T10:22:09.781Z,15.2
2022-12-08T10:23:26.035Z,13.8
2022-12-08T10:24:42.272Z,14.9
2022-12-08T10:25:58.510Z,14.9
2022-12-08T10:27:14.737Z,14.7
2022-12-08T10:28:30.986Z,17.7
2022-12-08T10:29:47.237Z,18.6
2022-12-08T10:31:03.466Z,15.9
2022-12-08T10:32:19.699Z,15.1
2022-12-08T10:33:35.951Z,16.4
2022-12-08T10:34:52.192Z,17.7
2022-12-08T10:36:08.425Z,16.8
2022-12-08T10:37:24.665Z,15.7
2022-12-08T10:38:39.936Z,17.3
2022-12-08T10:39:56.178Z,15.7
2022-12-08T10:41:12.416Z,14.7
2022-12-08T10:42:28.654Z,14.9
2022-12-08T10:43:44.890Z,15.8
2022-12-08T10:45:01.140Z,16.1
2022-12-08T10:46:17.372Z,14.9
2022-12-08T10:47:33.611Z,15.1
2022-12-08T10:48:49.849Z,15.7
2022-12-08T10:51:22.324Z,14.8
2022-12-08T10:52:38.581Z,17.6
2022-12-08T10:53:54.806Z,16
2022-12-08T10:55:10.073Z,16.1
2022-12-08T10:56:26.313Z,15.9
2022-12-08T10:57:42.560Z,16.3
2022-12-08T10:58:58.792Z,15.9
2022-12-08T11:00:15.026Z,16.5
2022-12-08T11:01:31.265Z,15.9
2022-12-08T11:02:47.516Z,15.8
2022-12-08T11:04:03.748Z,14.5
2022-12-08T11:05:19.996Z,16.4
2022-12-08T11:06:36.244Z,16
2022-12-08T11:07:52.474Z,16.8
2022-12-08T11:09:08.721Z,14.5
2022-12-08T11:10:24.951Z,14.1
2022-12-08T11:11:40.211Z,15.6
2022-12-08T11:12:56.448Z,15.4
2022-12-08T11:14:12.689Z,14.7
2022-12-08T11:15:28.929Z,14.1
2022-12-08T11:16:45.182Z,13.7
2022-12-08T11:18:01.426Z,15.9
2022-12-08T11:19:17.658Z,14.2
2022-12-08T11:20:33.903Z,14
2022-12-08T11:21:50.147Z,13.4
2022-12-08T11:23:06.386Z,13.6
2022-12-08T11:24:22.623Z,14.2
2022-12-08T11:25:38.863Z,14.9
2022-12-08T11:26:55.105Z,13.6
2022-12-08T11:29:26.609Z,13.5
2022-12-08T11:30:42.841Z,13.1
2022-12-08T11:31:59.093Z,14
2022-12-08T11:33:15.334Z,12.7
2022-12-08T11:34:31.565Z,13.5
2022-12-08T11:35:47.804Z,13.2
2022-12-08T11:37:04.053Z,11.8
2022-12-08T11:39:36.519Z,13
2022-12-08T11:40:52.769Z,13.2
2022-12-08T11:42:09.003Z,13.8
2022-12-08T11:43:25.255Z,13.4
2022-12-08T11:44:40.501Z,12.7
2022-12-08T11:45:56.741Z,13.6
2022-12-08T11:47:12.986Z,14.3
2022-12-08T11:48:29.227Z,13.3
2022-12-08T11:49:45.464Z,14.7
2022-12-08T11:52:17.941Z,16.3
2022-12-08T11:53:34.333Z,13.8
2022-12-08T11:54:49.000Z,13
2022-12-08T11:56:05.824Z,13.9
2022-12-08T11:57:22.076Z,12.5
2022-12-08T11:58:38.308Z,12.1
2022-12-08T11:59:54.547Z,12.7
2022-12-08T12:01:10.798Z,13.7
2022-12-08T12:02:27.025Z,13.3
2022-12-08T12:03:43.269Z,12.3
2022-12-08T12:04:59.508Z,13.7
2022-12-08T12:07:31.983Z,14.6
2022-12-08T12:08:48.235Z,12.8
2022-12-08T12:10:04.470Z,11.9
2022-12-08T12:11:19.732Z,12
2022-12-08T12:12:35.970Z,13
2022-12-08T12:13:52.217Z,12.8
2022-12-08T12:15:08.450Z,13.3
2022-12-08T12:16:24.697Z,11.8
2022-12-08T12:17:40.939Z,12.2
2022-12-08T12:18:57.171Z,11.8
2022-12-08T12:20:13.415Z,12.6
2022-12-08T12:22:44.927Z,12.1
2022-12-08T12:24:01.151Z,13.2
2022-12-08T12:25:16.419Z,11.2
2022-12-08T12:26:32.658Z,12.8
2022-12-08T12:27:48.897Z,12.3
2022-12-08T12:29:05.141Z,11.3
2022-12-08T12:30:21.389Z,10.8
2022-12-08T12:31:37.625Z,11.6
2022-12-08T12:32:53.870Z,11.5
2022-12-08T12:34:09.129Z,11.7
2022-12-08T12:35:24.385Z,11.4
2022-12-08T12:37:56.867Z,12.3
2022-12-08T12:39:13.102Z,11.9
2022-12-08T12:40:29.342Z,11.3
2022-12-08T12:41:45.590Z,11.6
2022-12-08T12:43:01.819Z,11.8
2022-12-08T12:44:18.063Z,11.2
2022-12-08T12:45:34.302Z,11.1
2022-12-08T12:46:50.543Z,11
2022-12-08T12:48:06.789Z,12
2022-12-08T12:49:23.017Z,11
2022-12-08T12:50:39.275Z,11.4
2022-12-08T12:51:54.519Z,13.1
2022-12-08T12:53:10.777Z,11.7
2022-12-08T12:54:27.007Z,12.4
2022-12-08T12:55:43.241Z,11.9
2022-12-08T12:56:59.484Z,12
2022-12-08T12:58:15.727Z,11.3
2022-12-08T13:00:48.214Z,12
2022-12-08T13:02:04.456Z,12.1
2022-12-08T13:03:20.692Z,12
2022-12-08T13:04:36.929Z,12
2022-12-08T13:05:53.164Z,11.8
2022-12-08T13:07:09.422Z,12.8
2022-12-08T13:08:24.673Z,12.7
2022-12-08T13:09:40.901Z,10.8
2022-12-08T13:10:57.156Z,12.6
2022-12-08T13:12:13.385Z,12.1
2022-12-08T13:13:29.626Z,12
2022-12-08T13:16:02.104Z,11.9
2022-12-08T13:17:18.361Z,12.2
2022-12-08T13:18:34.585Z,12.3
2022-12-08T13:19:50.836Z,12.8
2022-12-08T13:21:07.072Z,12.9
2022-12-08T13:22:23.322Z,11.4
2022-12-08T13:23:39.566Z,12.1
2022-12-08T13:24:54.824Z,12.3
2022-12-08T13:26:11.049Z,11.8
2022-12-08T13:27:27.301Z,12.4
2022-12-08T13:28:43.541Z,12.7
2022-12-08T13:29:59.778Z,12.2
2022-12-08T13:31:16.025Z,11.7
2022-12-08T13:32:32.266Z,12.5
2022-12-08T13:33:48.505Z,11.2
2022-12-08T13:35:04.745Z,10.9
2022-12-08T13:36:20.978Z,12.6
2022-12-08T13:37:37.231Z,12.8
2022-12-08T13:38:53.464Z,12
2022-12-08T13:40:09.705Z,11.9
2022-12-08T13:41:24.960Z,11.8
2022-12-08T13:42:41.208Z,11.2
2022-12-08T13:43:57.448Z,11.9
2022-12-08T13:45:13.680Z,11.7
2022-12-08T13:46:29.914Z,11.8
2022-12-08T13:47:46.164Z,11.4
2022-12-08T13:49:02.396Z,12.1
2022-12-08T13:50:18.640Z,12.2
2022-12-08T13:51:34.890Z,11.3
2022-12-08T13:54:07.371Z,12
2022-12-08T13:55:23.612Z,12.1
2022-12-08T13:56:39.855Z,11.2
2022-12-08T13:57:55.106Z,12.3
2022-12-08T13:59:11.342Z,11.4
2022-12-08T14:01:43.825Z,11.4
2022-12-08T14:03:00.070Z,10.7
2022-12-08T14:04:16.303Z,11.8
2022-12-08T14:05:32.546Z,10.9
2022-12-08T14:06:48.780Z,12.4
2022-12-08T14:08:05.023Z,11.9
2022-12-08T14:09:21.267Z,11.8
2022-12-08T14:10:37.519Z,11.6
2022-12-08T14:11:53.756Z,11.2
2022-12-08T14:13:10.001Z,12.2
2022-12-08T14:14:25.256Z,10.7
2022-12-08T14:15:41.499Z,11.2
2022-12-08T14:16:57.728Z,12
2022-12-08T14:18:13.972Z,10.4
2022-12-08T14:19:30.217Z,11.3
2022-12-08T14:20:46.448Z,11.9
2022-12-08T14:22:02.691Z,11.2
2022-12-08T14:23:18.935Z,10.3
2022-12-08T14:24:35.167Z,11.9
2022-12-08T14:25:51.426Z,11.7
2022-12-08T14:27:07.655Z,12.4
2022-12-08T14:28:23.898Z,12.7
2022-12-08T14:29:40.139Z,12
2022-12-08T14:30:55.403Z,14.1
2022-12-08T14:32:11.632Z,13.8
2022-12-08T14:33:27.885Z,12.5
2022-12-08T14:34:44.112Z,12.4
2022-12-08T14:36:00.360Z,11.8
2022-12-08T14:37:15.625Z,11.8
2022-12-08T14:38:31.862Z,10.6
2022-12-08T14:39:48.110Z,12
2022-12-08T14:41:04.334Z,10.9
2022-12-08T14:42:20.584Z,12.7
2022-12-08T14:43:36.821Z,11.7
2022-12-08T14:44:53.071Z,11.4
2022-12-08T14:47:25.537Z,10.9
2022-12-08T14:48:41.790Z,10.5
2022-12-08T14:49:58.028Z,11.5
2022-12-08T14:51:14.272Z,11.6
2022-12-08T14:52:30.518Z,11.1
2022-12-08T14:55:03.111Z,12.6
2022-12-08T14:56:19.349Z,10.4
2022-12-08T14:57:35.601Z,11.3
2022-12-08T14:58:51.834Z,11.3
2022-12-08T15:00:08.073Z,11.7
2022-12-08T15:01:24.308Z,12.1
2022-12-08T15:02:40.565Z,11.3
2022-12-08T15:05:13.032Z,10.8
2022-12-08T15:06:28.293Z,11.3
2022-12-08T15:07:43.546Z,11.7
2022-12-08T15:08:59.793Z,11.4
2022-12-08T15:10:16.027Z,12.3
2022-12-08T15:11:32.274Z,11.5
2022-12-08T15:12:48.520Z,11.3
2022-12-08T15:14:04.765Z,11.5
2022-12-08T15:15:20.997Z,12.2
2022-12-08T15:16:37.239Z,12.5
2022-12-08T15:17:53.475Z,12.9
2022-12-08T15:19:09.722Z,11.7
2022-12-08T15:20:24.989Z,11.1
2022-12-08T15:21:40.234Z,11.6
2022-12-08T15:22:56.485Z,11.9
2022-12-08T15:24:12.714Z,11.2
2022-12-08T15:25:28.953Z,12.9
2022-12-08T15:26:45.207Z,11.4
2022-12-08T15:28:01.438Z,11
2022-12-08T15:29:17.740Z,12.3
2022-12-08T15:30:34.033Z,12.9
2022-12-08T15:31:50.000Z,12
2022-12-08T15:33:06.578Z,12.5
2022-12-08T15:34:22.823Z,12
2022-12-08T15:35:39.117Z,12.2
2022-12-08T15:36:55.411Z,11.9
2022-12-08T15:38:10.719Z,12
2022-12-08T15:39:27.007Z,11.7
2022-12-08T15:40:43.306Z,11.1
2022-12-08T15:41:59.598Z,11.4
2022-12-08T15:43:15.904Z,14.7
2022-12-08T15:44:32.202Z,12.6
2022-12-08T15:45:48.482Z,13.6
2022-12-08T15:47:04.786Z,13.4
2022-12-08T15:48:21.080Z,13.8
2022-12-08T15:49:37.371Z,13.8
2022-12-08T15:50:53.664Z,13.9
2022-12-08T15:52:09.971Z,13
2022-12-08T15:53:26.242Z,13.3
2022-12-08T15:55:57.852Z,11.9
2022-12-08T15:57:14.149Z,16.2
2022-12-08T15:58:30.436Z,13.4
2022-12-08T15:59:46.743Z,14.6
2022-12-08T16:01:03.046Z,13.3
2022-12-08T16:02:19.336Z,15.6
2022-12-08T16:03:35.624Z,14.9
2022-12-08T16:04:51.911Z,15.4
2022-12-08T16:06:08.213Z,12.8
2022-12-08T16:07:24.508Z,12.7
2022-12-08T16:08:40.798Z,12
2022-12-08T16:09:57.105Z,11.4
2022-12-08T16:11:12.411Z,12.6
2022-12-08T16:12:28.712Z,11
2022-12-08T16:13:44.990Z,11.5
2022-12-08T16:15:01.300Z,11.8
2022-12-08T16:16:17.590Z,12
2022-12-08T16:17:33.888Z,10.7
2022-12-08T16:18:50.180Z,12.4
2022-12-08T16:20:06.476Z,12.6
2022-12-08T16:21:22.767Z,13.1
2022-12-08T16:22:39.060Z,13.7
2022-12-08T16:23:55.349Z,14
2022-12-08T16:25:11.647Z,21.2
2022-12-08T16:26:27.956Z,18.3
2022-12-08T16:27:43.250Z,14.6
2022-12-08T16:28:59.543Z,13.7
2022-12-08T16:30:15.853Z,13.2
2022-12-08T16:31:32.150Z,13.5
2022-12-08T16:32:48.435Z,12.6
2022-12-08T16:34:04.739Z,12.2
2022-12-08T16:35:21.026Z,12.1
2022-12-08T16:36:37.318Z,14.4
2022-12-08T16:37:53.621Z,18.1
2022-12-08T16:39:09.917Z,13.4
2022-12-08T16:40:26.196Z,14.3
2022-12-08T16:41:42.493Z,14.7
2022-12-08T16:42:58.786Z,12.9
2022-12-08T16:44:14.111Z,16.6
2022-12-08T16:45:30.396Z,12.6
2022-12-08T16:46:46.704Z,12.1
2022-12-08T16:48:02.991Z,16.1
2022-12-08T16:49:19.286Z,12.1
2022-12-08T16:51:51.876Z,13.2
2022-12-08T16:53:08.171Z,13.3
2022-12-08T16:54:24.470Z,14.7
2022-12-08T16:55:40.761Z,13.8
2022-12-08T16:56:57.057Z,14.5
2022-12-08T16:58:13.350Z,16.5
2022-12-08T16:59:29.650Z,13.1
2022-12-08T17:00:44.948Z,15.5
2022-12-08T17:02:01.244Z,19.7
2022-12-08T17:03:17.533Z,21.3
2022-12-08T17:04:33.848Z,29.6
2022-12-08T17:05:50.127Z,23
2022-12-08T17:07:06.435Z,27.3
2022-12-08T17:08:22.727Z,28
2022-12-08T17:09:39.019Z,23.4
2022-12-08T17:12:11.605Z,22
2022-12-08T17:13:27.899Z,25.8
2022-12-08T17:14:44.197Z,23.7
2022-12-08T17:16:00.487Z,22.8
2022-12-08T17:17:15.803Z,27.4
2022-12-08T17:18:32.093Z,31.2
2022-12-08T17:19:48.387Z,30
2022-12-08T17:21:04.685Z,34.1
2022-12-08T17:22:20.990Z,33.6
2022-12-08T17:23:37.272Z,39
2022-12-08T17:24:53.578Z,36.7
2022-12-08T17:27:26.150Z,37.6
2022-12-08T17:28:42.445Z,40.8
2022-12-08T17:29:58.742Z,36.5
2022-12-08T17:31:15.046Z,42.8
2022-12-08T17:32:31.328Z,43.5
2022-12-08T17:35:02.933Z,40.6
2022-12-08T17:36:18.252Z,44.2
2022-12-08T17:37:33.572Z,49
2022-12-08T17:38:49.858Z,50.9
2022-12-08T17:40:06.167Z,52.4
2022-12-08T17:41:22.457Z,52.4
2022-12-08T17:42:38.745Z,48.9
2022-12-08T17:43:55.045Z,52.6
2022-12-08T17:45:11.335Z,51.7
2022-12-08T17:46:27.642Z,112.1
2022-12-08T17:47:43.934Z,70.7
2022-12-08T17:49:00.218Z,56.6
2022-12-08T17:50:15.540Z,51.7
2022-12-08T17:51:30.848Z,51.8
2022-12-08T17:52:47.141Z,48.6